createdAt,value
2022-09-03T00:00:57.695Z,78.00
2022-09-03T00:03:32.119Z,78.10
2022-09-03T00:06:13.335Z,78.30
2022-09-03T00:08:47.545Z,78.40
2022-09-03T00:11:22.094Z,78.90
2022-09-03T00:13:55.924Z,78.70
2022-09-03T00:16:26.734Z,78.60
2022-09-03T00:19:00.610Z,78.80
2022-09-03T00:21:39.484Z,78.80
2022-09-03T00:24:11.031Z,79.20
2022-09-03T00:26:46.312Z,79.30
2022-09-03T00:29:18.074Z,79.50
2022-09-03T00:31:50.350Z,79.60
2022-09-03T00:34:24.098Z,79.50
2022-09-03T00:36:54.098Z,79.50
2022-09-03T00:39:23.841Z,79.60
2022-09-03T00:42:07.876Z,80.00
2022-09-03T00:45:00.995Z,79.60
2022-09-03T00:47:37.549Z,79.80
2022-09-03T00:50:16.079Z,80.30
2022-09-03T00:52:54.719Z,80.10
2022-09-03T00:55:33.336Z,79.80
2022-09-03T00:58:18.675Z,80.30
2022-09-03T01:00:47.016Z,80.30
2022-09-03T01:03:26.523Z,80.00
2022-09-03T01:06:06.352Z,80.30
2022-09-03T01:08:53.286Z,79.70
2022-09-03T01:11:27.521Z,79.70
2022-09-03T01:14:03.170Z,79.90
2022-09-03T01:16:38.428Z,79.70
2022-09-03T01:19:16.329Z,80.30
2022-09-03T01:22:07.262Z,80.10
2022-09-03T01:24:59.265Z,80.80
2022-09-03T01:27:40.126Z,81.20
2022-09-03T01:30:18.337Z,81.10
2022-09-03T01:32:54.499Z,80.70
2022-09-03T01:35:28.879Z,81.10
2022-09-03T01:38:10.491Z,81.30
2022-09-03T01:40:47.983Z,81.00
2022-09-03T01:43:40.017Z,81.00
2022-09-03T01:46:19.671Z,81.50
2022-09-03T01:49:00.823Z,81.50
2022-09-03T01:51:31.284Z,81.10
2022-09-03T01:54:21.101Z,81.40
2022-09-03T01:57:19.171Z,81.70
2022-09-03T02:00:02.716Z,81.70
2022-09-03T02:02:33.093Z,81.90
2022-09-03T02:05:02.905Z,81.90
2022-09-03T02:07:34.813Z,82.10
2022-09-03T02:10:05.084Z,82.30
2022-09-03T02:12:35.528Z,82.20
2022-09-03T02:15:07.195Z,82.50
2022-09-03T02:17:37.412Z,82.20
2022-09-03T02:20:08.972Z,82.20
2022-09-03T02:22:36.979Z,82.50
2022-09-03T02:25:05.537Z,82.90
2022-09-03T02:27:33.747Z,82.90
2022-09-03T02:30:02.141Z,82.60
2022-09-03T02:32:30.334Z,83.20
2022-09-03T02:34:59.999Z,83.20
2022-09-03T02:37:28.068Z,82.90
2022-09-03T02:39:56.088Z,82.90
2022-09-03T02:42:24.130Z,83.60
2022-09-03T02:44:56.195Z,83.50
2022-09-03T02:47:26.534Z,83.30
2022-09-03T02:49:54.512Z,83.10
2022-09-03T02:52:23.903Z,83.30
2022-09-03T02:54:51.905Z,83.20
2022-09-03T02:57:27.421Z,83.70
2022-09-03T02:59:55.662Z,83.60
2022-09-03T03:02:23.743Z,83.40
2022-09-03T03:04:51.804Z,83.50
2022-09-03T03:07:19.811Z,83.40
2022-09-03T03:09:49.161Z,83.90
2022-09-03T03:12:17.520Z,83.80
2022-09-03T03:14:45.521Z,83.30
2022-09-03T03:17:13.580Z,83.50
2022-09-03T03:19:41.574Z,84.10
2022-09-03T03:22:09.604Z,84.00
2022-09-03T03:24:38.108Z,84.20
2022-09-03T03:27:10.762Z,84.50
2022-09-03T03:29:39.630Z,84.30
2022-09-03T03:32:07.621Z,84.70
2022-09-03T03:34:35.597Z,84.70
2022-09-03T03:37:04.616Z,85.00
2022-09-03T03:39:32.663Z,84.80
2022-09-03T03:42:00.797Z,84.80
2022-09-03T03:44:30.247Z,84.70
2022-09-03T03:46:58.244Z,85.20
2022-09-03T03:49:26.350Z,85.30
2022-09-03T03:51:54.317Z,85.20
2022-09-03T03:54:22.529Z,85.30
2022-09-03T03:56:55.688Z,85.90
2022-09-03T03:59:23.974Z,86.10
2022-09-03T04:01:56.498Z,86.30
2022-09-03T04:04:24.631Z,86.70
2022-09-03T04:06:52.611Z,86.50
2022-09-03T04:09:20.702Z,86.90
2022-09-03T04:11:48.673Z,87.20
2022-09-03T04:14:17.971Z,87.10
2022-09-03T04:16:46.871Z,86.90
2022-09-03T04:19:16.279Z,87.60
2022-09-03T04:21:44.736Z,87.60
2022-09-03T04:24:13.164Z,87.50
2022-09-03T04:26:41.588Z,87.60
2022-09-03T04:29:11.159Z,87.30
2022-09-03T04:32:00.020Z,87.20
2022-09-03T04:34:30.137Z,87.80
2022-09-03T04:36:59.134Z,87.90
2022-09-03T04:39:28.057Z,88.20
2022-09-03T04:41:56.118Z,88.30
2022-09-03T04:44:24.091Z,87.90
2022-09-03T04:46:53.310Z,88.10
2022-09-03T04:49:21.607Z,88.50
2022-09-03T04:51:51.022Z,88.60
2022-09-03T04:54:18.999Z,88.30
2022-09-03T04:56:47.123Z,88.50
2022-09-03T04:59:15.866Z,88.30
2022-09-03T05:01:44.963Z,88.20
2022-09-03T05:04:13.341Z,88.70
2022-09-03T05:06:41.332Z,88.60
2022-09-03T05:09:10.668Z,89.00
2022-09-03T05:11:38.699Z,89.10
2022-09-03T05:14:07.303Z,88.70
2022-09-03T05:16:35.361Z,88.90
2022-09-03T05:19:03.745Z,89.70
2022-09-03T05:21:31.744Z,89.40
2022-09-03T05:24:01.142Z,89.90
2022-09-03T05:26:32.417Z,90.00
2022-09-03T05:29:02.546Z,90.00
2022-09-03T05:31:32.597Z,90.20
2022-09-03T05:34:02.668Z,90.30
2022-09-03T05:36:34.687Z,90.30
2022-09-03T05:39:02.929Z,90.40
2022-09-03T05:41:34.321Z,90.70
2022-09-03T05:44:02.587Z,90.60
2022-09-03T05:46:33.124Z,90.70
2022-09-03T05:49:02.227Z,90.80
2022-09-03T05:51:31.557Z,90.80
2022-09-03T05:54:00.077Z,90.90
2022-09-03T05:56:31.148Z,91.00
2022-09-03T05:59:03.164Z,91.00
2022-09-03T06:01:32.730Z,91.20
2022-09-03T06:04:02.388Z,91.50
2022-09-03T06:06:32.275Z,91.70
2022-09-03T06:09:02.511Z,92.00
2022-09-03T06:11:32.954Z,92.00
2022-09-03T06:14:05.119Z,92.10
2022-09-03T06:16:34.671Z,92.20
2022-09-03T06:19:03.016Z,92.40
2022-09-03T06:21:31.131Z,92.50
2022-09-03T06:24:00.277Z,92.60
2022-09-03T06:26:29.741Z,92.70
2022-09-03T06:29:00.001Z,92.80
2022-09-03T06:31:29.417Z,93.00
2022-09-03T06:34:02.022Z,93.10
2022-09-03T06:36:32.069Z,93.20
2022-09-03T06:39:00.472Z,93.30
2022-09-03T06:41:35.435Z,93.40
2022-09-03T06:44:05.882Z,93.60
2022-09-03T06:46:38.933Z,93.60
2022-09-03T06:49:08.464Z,93.60
2022-09-03T06:51:37.774Z,93.50
2022-09-03T06:54:07.784Z,93.50
2022-09-03T06:56:40.280Z,93.60
2022-09-03T06:59:10.280Z,93.60
2022-09-03T07:01:43.516Z,93.60
2022-09-03T07:04:14.025Z,93.50
2022-09-03T07:06:43.229Z,93.50
2022-09-03T07:09:12.872Z,93.50
2022-09-03T07:11:48.191Z,93.60
2022-09-03T07:14:18.367Z,93.70
2022-09-03T07:16:49.222Z,93.80
2022-09-03T07:19:17.921Z,93.90
2022-09-03T07:21:50.053Z,93.90
2022-09-03T07:24:19.544Z,93.80
2022-09-03T07:26:48.918Z,93.40
2022-09-03T07:29:20.429Z,93.40
2022-09-03T07:31:52.946Z,93.30
2022-09-03T07:34:25.312Z,93.20
2022-09-03T07:36:53.958Z,93.20
2022-09-03T07:39:22.196Z,93.00
2022-09-03T07:41:50.686Z,92.50
2022-09-03T07:44:20.441Z,91.70
2022-09-03T07:46:51.790Z,91.60
2022-09-03T07:49:21.796Z,91.40
2022-09-03T07:51:53.445Z,91.50
2022-09-03T07:54:21.953Z,91.40
2022-09-03T07:56:50.068Z,91.20
2022-09-03T07:59:18.192Z,91.10
2022-09-03T08:01:46.285Z,91.20
2022-09-03T08:04:15.746Z,91.10
2022-09-03T08:06:43.834Z,91.00
2022-09-03T08:09:13.826Z,90.70
2022-09-03T08:11:43.639Z,90.30
2022-09-03T08:14:13.046Z,89.90
2022-09-03T08:16:43.302Z,89.70
2022-09-03T08:19:13.236Z,89.10
2022-09-03T08:21:42.966Z,88.40
2022-09-03T08:24:12.115Z,88.50
2022-09-03T08:26:41.981Z,87.90
2022-09-03T08:29:10.530Z,86.90
2022-09-03T08:31:39.341Z,86.60
2022-09-03T08:34:08.569Z,86.70
2022-09-03T08:36:38.848Z,86.80
2022-09-03T08:39:10.232Z,86.60
2022-09-03T08:42:03.712Z,84.70
2022-09-03T08:44:37.512Z,84.70
2022-09-03T08:47:11.523Z,85.00
2022-09-03T08:49:46.281Z,84.60
2022-09-03T08:52:23.899Z,85.40
2022-09-03T08:54:58.654Z,86.10
2022-09-03T08:57:27.235Z,87.00
2022-09-03T08:59:57.256Z,86.10
2022-09-03T09:02:35.433Z,85.60
2022-09-03T09:05:14.302Z,85.50
2022-09-03T09:07:50.243Z,85.20
2022-09-03T09:10:25.702Z,85.40
2022-09-03T09:13:10.545Z,84.80
2022-09-03T09:15:49.865Z,84.10
2022-09-03T09:18:25.960Z,83.10
2022-09-03T09:21:00.454Z,84.10
2022-09-03T09:23:32.245Z,83.90
2022-09-03T09:26:05.772Z,83.60
2022-09-03T09:28:36.507Z,83.10
2022-09-03T09:31:07.750Z,82.30
2022-09-03T09:33:36.205Z,82.80
2022-09-03T09:36:08.501Z,81.70
2022-09-03T09:38:38.755Z,81.00
2022-09-03T09:41:13.236Z,80.70
2022-09-03T09:43:41.676Z,81.20
2022-09-03T09:46:14.927Z,82.00
2022-09-03T09:48:51.786Z,82.90
2022-09-03T09:51:22.517Z,83.60
2022-09-03T09:54:02.301Z,83.20
2022-09-03T09:56:31.807Z,82.20
2022-09-03T09:59:07.793Z,82.00
2022-09-03T10:01:38.971Z,81.30
2022-09-03T10:04:12.266Z,81.70
2022-09-03T10:06:57.172Z,82.00
2022-09-03T10:09:30.959Z,81.40
2022-09-03T10:12:11.208Z,82.10
2022-09-03T10:14:43.677Z,82.90
2022-09-03T10:17:19.816Z,82.90
2022-09-03T10:20:11.482Z,82.20
2022-09-03T10:22:56.387Z,82.10
2022-09-03T10:25:30.214Z,81.70
2022-09-03T10:28:02.114Z,81.00
2022-09-03T10:30:40.388Z,81.50
2022-09-03T10:33:16.827Z,82.10
2022-09-03T10:35:48.129Z,82.40
2022-09-03T10:38:22.969Z,82.60
2022-09-03T10:40:56.370Z,82.50
2022-09-03T10:43:52.891Z,82.20
2022-09-03T10:46:27.562Z,82.30
2022-09-03T10:49:16.886Z,82.50
2022-09-03T10:51:52.682Z,82.80
2022-09-03T10:54:38.039Z,82.60
2022-09-03T10:57:15.246Z,82.70
2022-09-03T10:59:57.837Z,83.40
2022-09-03T11:02:57.091Z,83.30
2022-09-03T11:05:30.955Z,83.80
2022-09-03T11:08:02.884Z,83.00
2022-09-03T11:10:33.437Z,82.60
2022-09-03T11:13:07.293Z,82.30
2022-09-03T11:15:42.273Z,82.30
2022-09-03T11:18:17.898Z,82.10
2022-09-03T11:20:47.497Z,81.50
2022-09-03T11:23:16.859Z,82.20
2022-09-03T11:25:50.723Z,82.50
2022-09-03T11:28:33.224Z,82.90
2022-09-03T11:31:17.766Z,82.50
2022-09-03T11:33:50.519Z,82.20
2022-09-03T11:36:29.792Z,81.70
2022-09-03T11:38:57.844Z,81.00
2022-09-03T11:41:28.232Z,80.90
2022-09-03T11:43:59.066Z,80.50
2022-09-03T11:46:33.225Z,79.80
2022-09-03T11:49:13.405Z,80.30
2022-09-03T11:51:44.111Z,79.90
2022-09-03T11:54:26.709Z,79.40
2022-09-03T11:57:11.667Z,79.90
2022-09-03T11:59:41.292Z,79.80
2022-09-03T12:02:24.287Z,79.70
2022-09-03T12:05:11.602Z,80.40
2022-09-03T12:08:08.690Z,79.90
2022-09-03T12:10:44.454Z,79.40
2022-09-03T12:13:44.621Z,79.70
2022-09-03T12:16:36.961Z,79.00
2022-09-03T12:19:14.495Z,78.00
2022-09-03T12:21:42.540Z,77.90
2022-09-03T12:24:13.659Z,78.60
2022-09-03T12:26:44.186Z,79.50
2022-09-03T12:29:27.690Z,80.20
2022-09-03T12:31:57.373Z,79.80
2022-09-03T12:34:27.425Z,81.00
2022-09-03T12:36:56.083Z,80.30
2022-09-03T12:42:19.752Z,79.40
2022-09-03T12:44:47.793Z,79.70
2022-09-03T12:47:35.755Z,80.30
2022-09-03T12:50:11.229Z,79.60
2022-09-03T12:52:45.352Z,79.80
2022-09-03T12:55:27.451Z,79.40
2022-09-03T12:58:02.808Z,79.70
2022-09-03T13:00:33.894Z,79.40
2022-09-03T13:03:07.723Z,79.70
2022-09-03T13:05:44.604Z,80.30
2022-09-03T13:08:21.206Z,79.40
2022-09-03T13:10:54.303Z,78.20
2022-09-03T13:13:27.913Z,77.80
2022-09-03T13:16:31.046Z,77.60
2022-09-03T13:19:08.201Z,78.00
2022-09-03T13:21:49.587Z,77.70
2022-09-03T13:24:35.355Z,78.50
2022-09-03T13:27:12.225Z,78.60
2022-09-03T13:29:58.322Z,78.70
2022-09-03T13:32:35.835Z,78.70
2022-09-03T13:35:11.628Z,78.80
2022-09-03T13:37:44.852Z,79.50
2022-09-03T13:40:19.308Z,79.90
2022-09-03T13:42:54.344Z,79.50
2022-09-03T13:45:32.591Z,79.00
2022-09-03T13:48:26.517Z,79.20
2022-09-03T13:51:01.003Z,78.20
2022-09-03T13:53:43.275Z,77.90
2022-09-03T13:56:22.240Z,77.90
2022-09-03T13:58:55.396Z,78.20
2022-09-03T14:01:29.283Z,78.40
2022-09-03T14:04:01.686Z,78.80
2022-09-03T14:06:42.170Z,79.80
2022-09-03T14:09:19.951Z,79.80
2022-09-03T14:11:56.024Z,80.30
2022-09-03T14:14:38.482Z,80.40
2022-09-03T14:17:14.729Z,81.00
2022-09-03T14:19:49.829Z,81.50
2022-09-03T14:22:23.204Z,81.40
2022-09-03T14:24:56.559Z,81.30
2022-09-03T14:27:27.040Z,80.90
2022-09-03T14:30:00.946Z,81.20
2022-09-03T14:32:35.702Z,81.70
2022-09-03T14:35:25.075Z,82.20
2022-09-03T14:38:12.940Z,82.30
2022-09-03T14:40:46.767Z,82.60
2022-09-03T14:43:34.456Z,82.90
2022-09-03T14:46:16.854Z,82.80
2022-09-03T14:49:16.634Z,82.60
2022-09-03T14:52:03.514Z,82.10
2022-09-03T14:54:58.412Z,81.50
2022-09-03T14:57:47.008Z,82.00
2022-09-03T15:00:18.385Z,82.20
2022-09-03T15:03:13.055Z,82.20
2022-09-03T15:05:51.679Z,82.30
2022-09-03T15:08:34.737Z,82.00
2022-09-03T15:11:04.995Z,82.10
2022-09-03T15:13:43.484Z,81.50
2022-09-03T15:16:30.011Z,82.00
2022-09-03T15:19:11.608Z,82.30
2022-09-03T15:22:03.392Z,82.30
2022-09-03T15:24:44.165Z,82.30
2022-09-03T15:27:33.155Z,82.30
2022-09-03T15:30:08.029Z,82.80
2022-09-03T15:32:48.884Z,83.10
2022-09-03T15:35:33.585Z,83.30
2022-09-03T15:38:05.224Z,82.90
2022-09-03T15:40:38.164Z,82.60
2022-09-03T15:43:13.383Z,82.50
2022-09-03T15:45:57.647Z,82.60
2022-09-03T15:48:33.556Z,82.90
2022-09-03T15:51:13.917Z,83.00
2022-09-03T15:53:51.222Z,82.90
2022-09-03T15:56:25.675Z,82.60
2022-09-03T15:59:01.363Z,82.90
2022-09-03T16:01:36.752Z,83.30
2022-09-03T16:04:20.785Z,83.30
2022-09-03T16:06:56.526Z,83.60
2022-09-03T16:09:33.680Z,83.80
2022-09-03T16:12:15.831Z,83.60
2022-09-03T16:14:48.058Z,83.60
2022-09-03T16:17:27.333Z,83.50
2022-09-03T16:20:00.626Z,83.80
2022-09-03T16:22:30.922Z,83.60
2022-09-03T16:25:02.697Z,83.20
2022-09-03T16:27:37.697Z,83.80
2022-09-03T16:30:11.272Z,84.50
2022-09-03T16:32:57.721Z,84.90
2022-09-03T16:35:35.576Z,85.00
2022-09-03T16:38:15.105Z,85.50
2022-09-03T16:40:49.095Z,85.80
2022-09-03T16:43:40.094Z,86.00
2022-09-03T16:46:27.162Z,86.20
2022-09-03T16:49:11.316Z,86.00
2022-09-03T16:51:45.646Z,86.50
2022-09-03T16:54:29.402Z,86.70
2022-09-03T16:57:08.409Z,87.10
2022-09-03T17:00:03.849Z,87.00
2022-09-03T17:03:03.699Z,87.30
2022-09-03T17:06:08.686Z,87.70
2022-09-03T17:08:45.932Z,87.90
2022-09-03T17:11:28.431Z,88.30
2022-09-03T17:14:05.567Z,88.70
2022-09-03T17:16:47.539Z,88.90
2022-09-03T17:19:25.851Z,89.10
2022-09-03T17:22:07.240Z,89.70
2022-09-03T17:24:42.349Z,90.40
2022-09-03T17:27:32.072Z,90.20
2022-09-03T17:30:12.494Z,90.40
2022-09-03T17:33:01.709Z,90.60
2022-09-03T17:35:38.252Z,90.70
2022-09-03T17:38:28.444Z,90.80
2022-09-03T17:41:06.603Z,91.00
2022-09-03T17:43:45.819Z,91.10
2022-09-03T17:46:27.108Z,91.30
2022-09-03T17:48:56.431Z,91.50
2022-09-03T17:51:35.199Z,91.60
2022-09-03T17:54:11.789Z,91.70
2022-09-03T17:56:56.279Z,91.70
2022-09-03T17:59:36.146Z,91.80
2022-09-03T18:02:11.667Z,91.90
2022-09-03T18:04:49.508Z,92.00
2022-09-03T18:07:27.734Z,92.20
2022-09-03T18:10:07.923Z,92.20
2022-09-03T18:12:44.455Z,92.40
2022-09-03T18:15:30.345Z,92.50
2022-09-03T18:18:04.000Z,92.50
2022-09-03T18:21:22.007Z,92.70
2022-09-03T18:24:12.727Z,92.90
2022-09-03T18:27:04.462Z,93.10
2022-09-03T18:29:55.008Z,93.20
2022-09-03T18:32:40.964Z,93.40
2022-09-03T18:35:27.893Z,93.60
2022-09-03T18:38:14.071Z,94.10
2022-09-03T18:41:08.671Z,93.90
2022-09-03T18:44:00.281Z,94.00
2022-09-03T18:48:01.181Z,94.20
2022-09-03T18:50:05.946Z,94.40
2022-09-03T18:53:02.668Z,94.60
2022-09-03T18:56:01.309Z,94.90
2022-09-03T18:58:55.730Z,95.20
2022-09-03T19:01:49.610Z,95.50
2022-09-03T19:04:43.069Z,95.60
2022-09-03T19:07:31.735Z,95.90
2022-09-03T19:10:21.266Z,96.00
2022-09-03T19:13:35.320Z,96.30
2022-09-03T19:16:27.330Z,96.30
2022-09-03T19:19:36.143Z,96.80
2022-09-03T19:22:26.964Z,97.10
2022-09-03T19:25:18.406Z,97.70
2022-09-03T19:28:13.175Z,97.90
2022-09-03T19:31:15.238Z,98.40
2022-09-03T19:34:12.115Z,98.90
2022-09-03T19:37:06.986Z,99.20
2022-09-03T19:40:10.101Z,99.70
2022-09-03T19:43:08.786Z,99.90
2022-09-03T19:46:02.189Z,99.90
2022-09-03T19:48:59.037Z,99.90
2022-09-03T19:51:52.930Z,99.90
2022-09-03T19:54:43.531Z,99.90
2022-09-03T19:57:31.534Z,99.90
2022-09-03T20:00:17.733Z,99.90
2022-09-03T20:03:17.276Z,99.90
2022-09-03T20:06:07.597Z,99.90
2022-09-03T20:08:56.182Z,99.90
2022-09-03T20:11:27.804Z,99.90
2022-09-03T20:14:16.179Z,99.90
2022-09-03T20:16:54.903Z,99.90
2022-09-03T20:19:33.746Z,99.90
2022-09-03T20:22:12.892Z,99.90
2022-09-03T20:24:50.062Z,99.90
2022-09-03T20:27:32.874Z,99.90
2022-09-03T20:30:04.739Z,99.90
2022-09-03T20:32:48.825Z,99.90
2022-09-03T20:35:31.092Z,99.90
2022-09-03T20:38:14.608Z,99.90
2022-09-03T20:40:47.411Z,99.90
2022-09-03T20:43:36.374Z,99.90
2022-09-03T20:46:16.959Z,99.90
2022-09-03T20:48:55.976Z,99.90
2022-09-03T20:51:28.686Z,99.90
2022-09-03T20:54:14.391Z,99.90
2022-09-03T20:57:08.092Z,99.90
2022-09-03T20:59:51.314Z,99.90
2022-09-03T21:02:29.025Z,99.90
2022-09-03T21:05:09.814Z,99.90
2022-09-03T21:07:48.772Z,99.90
2022-09-03T21:10:25.067Z,99.90
2022-09-03T21:13:02.743Z,99.90
2022-09-03T21:15:39.403Z,99.90
2022-09-03T21:18:17.471Z,99.90
2022-09-03T21:20:50.012Z,99.90
2022-09-03T21:23:22.710Z,99.90
2022-09-03T21:25:58.500Z,99.90
2022-09-03T21:28:32.442Z,99.90
2022-09-03T21:31:08.205Z,99.90
2022-09-03T21:33:39.644Z,99.90
2022-09-03T21:36:11.528Z,99.90
2022-09-03T21:38:49.289Z,99.90
2022-09-03T21:41:24.751Z,99.90
2022-09-03T21:43:59.359Z,99.90
2022-09-03T21:46:33.835Z,99.90
2022-09-03T21:49:06.707Z,99.90
2022-09-03T21:51:39.749Z,99.90
2022-09-03T21:54:11.650Z,99.90
2022-09-03T21:56:59.157Z,99.90
2022-09-03T22:00:07.447Z,99.90
2022-09-03T22:02:36.868Z,99.90
2022-09-03T22:05:05.974Z,99.90
2022-09-03T22:07:53.340Z,99.90
2022-09-03T22:10:28.429Z,99.90
2022-09-03T22:13:09.479Z,99.90
2022-09-03T22:15:38.941Z,99.90
2022-09-03T22:18:17.561Z,99.90
2022-09-03T22:21:00.200Z,99.90
2022-09-03T22:23:42.750Z,99.90
2022-09-03T22:26:22.612Z,99.90
2022-09-03T22:29:03.356Z,99.90
2022-09-03T22:31:47.271Z,99.90
2022-09-03T22:34:27.392Z,99.90
2022-09-03T22:37:02.448Z,99.90
2022-09-03T22:39:36.591Z,99.90
2022-09-03T22:42:37.399Z,99.90
2022-09-03T22:45:21.333Z,99.90
2022-09-03T22:48:03.546Z,99.90
2022-09-03T22:50:42.808Z,99.90
2022-09-03T22:53:23.375Z,99.90
2022-09-03T22:56:00.547Z,99.90
2022-09-03T22:58:34.132Z,99.90
2022-09-03T23:01:07.705Z,99.90
2022-09-03T23:03:42.419Z,99.90
2022-09-03T23:06:18.510Z,99.90
2022-09-03T23:08:51.162Z,99.90
2022-09-03T23:11:25.276Z,99.90
2022-09-03T23:14:00.488Z,99.90
2022-09-03T23:16:35.352Z,99.90
2022-09-03T23:21:51.869Z,99.90
2022-09-03T23:24:26.643Z,99.90
2022-09-03T23:26:54.893Z,99.90
2022-09-03T23:29:27.971Z,99.90
2022-09-03T23:31:58.172Z,99.90
2022-09-03T23:34:27.027Z,99.90
2022-09-03T23:37:35.347Z,99.90
2022-09-03T23:40:28.936Z,99.90
2022-09-03T23:43:23.296Z,99.90
2022-09-03T23:46:01.392Z,99.90
2022-09-03T23:48:42.059Z,99.90
2022-09-03T23:51:18.153Z,99.90
2022-09-03T23:54:04.116Z,99.90
2022-09-03T23:56:53.494Z,99.90
2022-09-03T23:59:29.545Z,99.90
